RJOA/HIJ METAR and TAF weather

Enter ICAO airport designator
Station Type Date Time Source
RJOA METAR 2022/05/26 05:00 UTC NOAA

RJOA 260500Z 19003KT 150V240 9999 FEW030 SCT060 BKN/// 21/16 Q1006


Station Type Date Time Source
RJOA Decoded METAR 2022/05/26 05:00 UTC NOAA

Hiroshima Airport, Japan (RJOA) 34-26N 132-55E 334M
May 26, 2022 - 01:00 AM EDT / 2022.05.26 0500 UTC
Wind: from the S (190 degrees) at 3 MPH (3 KT) (direction variable):0
Visibility: greater than 7 mile(s):0
Sky conditions: mostly cloudy
Temperature: 69 F (21 C)
Dew Point: 60 F (16 C)
Relative Humidity: 73%
Pressure (altimeter): 29.71 in. Hg (1006 hPa)
ob: RJOA 260500Z 19003KT 150V240 9999 FEW030 SCT060 BKN/// 21/16 Q1006
cycle: 5

Station Type Date Time Source
RJOA TAF 2022/05/26 06:30 UTC NOAA

TAF RJOA 260505Z 2606/2712 17004KT 8000 -SHRA FEW010 SCT020 BKN030
BECMG 2606/2608 4000 -SHRA BR BCFG FEW000 SCT005 BKN008
TEMPO 2608/2616 1500 SHRA BR BCFG FEW000 SCT003 BKN005
BECMG 2615/2617 32005KT
BECMG 2618/2621 9999 NSW FEW005 SCT025

Example: see airport list